createdAt,value
2022-11-14T00:00:40.512Z,1020.28
2022-11-14T00:01:40.327Z,1020.17
2022-11-14T00:02:40.391Z,1020.13
2022-11-14T00:03:40.057Z,1020.14
2022-11-14T00:04:40.245Z,1020.07
2022-11-14T00:05:40.196Z,1020.14
2022-11-14T00:06:40.461Z,1020.08
2022-11-14T00:07:40.190Z,1020.12
2022-11-14T00:08:40.203Z,1020.09
2022-11-14T00:09:40.130Z,1020.09
2022-11-14T00:10:40.029Z,1020.09
2022-11-14T00:11:40.045Z,1020.08
2022-11-14T00:12:39.941Z,1020.11
2022-11-14T00:13:40.227Z,1020.07
2022-11-14T00:14:39.741Z,1020.09
2022-11-14T00:15:39.851Z,1020.05
2022-11-14T00:16:39.842Z,1019.99
2022-11-14T00:17:39.772Z,1020.01
2022-11-14T00:18:39.756Z,1019.99
2022-11-14T00:19:39.823Z,1019.93
2022-11-14T00:20:39.640Z,1019.99
2022-11-14T00:21:39.890Z,1019.98
2022-11-14T00:22:39.645Z,1019.99
2022-11-14T00:23:39.574Z,1019.97
2022-11-14T00:24:39.304Z,1019.96
2022-11-14T00:25:39.518Z,1019.95
2022-11-14T00:26:39.507Z,1019.94
2022-11-14T00:27:39.811Z,1019.89
2022-11-14T00:28:39.357Z,1019.91
2022-11-14T00:29:39.527Z,1019.87
2022-11-14T00:30:39.362Z,1019.82
2022-11-14T00:31:39.300Z,1019.87
2022-11-14T00:32:39.087Z,1019.83
2022-11-14T00:33:39.432Z,1019.89
2022-11-14T00:34:39.246Z,1019.81
2022-11-14T00:35:38.915Z,1019.81
2022-11-14T00:36:39.115Z,1019.79
2022-11-14T00:37:38.849Z,1019.82
2022-11-14T00:38:38.870Z,1019.82
2022-11-14T00:39:38.776Z,1019.83
2022-11-14T00:40:44.602Z,1019.86
2022-11-14T00:41:38.689Z,1019.84
2022-11-14T00:42:38.728Z,1019.79
2022-11-14T00:43:38.625Z,1019.77
2022-11-14T00:44:38.596Z,1019.78
2022-11-14T00:45:38.550Z,1019.77
2022-11-14T00:46:38.521Z,1019.80
2022-11-14T00:47:38.564Z,1019.77
2022-11-14T00:48:38.512Z,1019.73
2022-11-14T00:49:38.411Z,1019.67
2022-11-14T00:50:38.376Z,1019.71
2022-11-14T00:51:38.332Z,1019.71
2022-11-14T00:52:38.295Z,1019.71
2022-11-14T00:53:38.760Z,1019.67
2022-11-14T00:54:38.240Z,1019.65
2022-11-14T00:55:38.187Z,1019.67
2022-11-14T00:56:38.170Z,1019.63
2022-11-14T00:57:38.115Z,1019.64
2022-11-14T00:58:38.160Z,1019.65
2022-11-14T00:59:38.048Z,1019.66
2022-11-14T01:00:38.083Z,1019.66
2022-11-14T01:01:37.976Z,1019.61
2022-11-14T01:02:37.938Z,1019.61
2022-11-14T01:03:37.912Z,1019.54
2022-11-14T01:04:38.009Z,1019.57
2022-11-14T01:05:37.844Z,1019.59
2022-11-14T01:06:37.835Z,1019.52
2022-11-14T01:07:37.759Z,1019.56
2022-11-14T01:08:37.722Z,1019.53
2022-11-14T01:09:37.745Z,1019.55
2022-11-14T01:10:37.673Z,1019.51
2022-11-14T01:11:37.610Z,1019.53
2022-11-14T01:12:37.594Z,1019.51
2022-11-14T01:13:37.617Z,1019.51
2022-11-14T01:14:37.512Z,1019.51
2022-11-14T01:15:37.480Z,1019.50
2022-11-14T01:16:37.444Z,1019.47
2022-11-14T01:17:37.409Z,1019.51
2022-11-14T01:18:37.378Z,1019.51
2022-11-14T01:19:37.413Z,1019.47
2022-11-14T01:20:37.364Z,1019.41
2022-11-14T01:21:37.265Z,1019.47
2022-11-14T01:22:37.261Z,1019.46
2022-11-14T01:23:37.188Z,1019.45
2022-11-14T01:24:37.163Z,1019.45
2022-11-14T01:25:37.197Z,1019.44
2022-11-14T01:26:37.085Z,1019.44
2022-11-14T01:27:37.044Z,1019.40
2022-11-14T01:28:37.019Z,1019.39
2022-11-14T01:29:36.968Z,1019.40
2022-11-14T01:30:36.946Z,1019.41
2022-11-14T01:31:36.975Z,1019.39
2022-11-14T01:32:36.867Z,1019.36
2022-11-14T01:33:36.833Z,1019.37
2022-11-14T01:34:36.820Z,1019.31
2022-11-14T01:35:36.759Z,1019.35
2022-11-14T01:36:36.854Z,1019.25
2022-11-14T01:37:36.682Z,1019.27
2022-11-14T01:38:36.653Z,1019.29
2022-11-14T01:39:36.613Z,1019.31
2022-11-14T01:40:36.594Z,1019.31
2022-11-14T01:41:36.543Z,1019.29
2022-11-14T01:42:36.584Z,1019.30
2022-11-14T01:43:36.470Z,1019.26
2022-11-14T01:44:36.443Z,1019.23
2022-11-14T01:45:36.396Z,1019.24
2022-11-14T01:46:36.361Z,1019.21
2022-11-14T01:47:36.364Z,1019.22
2022-11-14T01:48:36.357Z,1019.21
2022-11-14T01:49:36.261Z,1019.23
2022-11-14T01:50:36.239Z,1019.25
2022-11-14T01:51:36.187Z,1019.21
2022-11-14T01:52:36.208Z,1019.22
2022-11-14T01:53:36.113Z,1019.23
2022-11-14T01:54:36.131Z,1019.24
2022-11-14T01:55:36.031Z,1019.19
2022-11-14T01:56:36.003Z,1019.20
2022-11-14T01:57:35.972Z,1019.22
2022-11-14T01:58:35.936Z,1019.20
2022-11-14T01:59:35.954Z,1019.20
2022-11-14T02:00:35.855Z,1019.20
2022-11-14T02:01:35.865Z,1019.17
2022-11-14T02:02:35.792Z,1019.14
2022-11-14T02:03:35.771Z,1019.13
2022-11-14T02:04:35.716Z,1019.13
2022-11-14T02:05:35.749Z,1019.11
2022-11-14T02:06:35.654Z,1019.10
2022-11-14T02:07:35.696Z,1019.07
2022-11-14T02:08:35.651Z,1019.04
2022-11-14T02:09:35.600Z,1019.04
2022-11-14T02:10:35.502Z,1019.06
2022-11-14T02:11:35.463Z,1019.02
2022-11-14T02:12:35.435Z,1018.98
2022-11-14T02:13:35.385Z,1018.95
2022-11-14T02:14:35.426Z,1018.94
2022-11-14T02:15:35.337Z,1018.95
2022-11-14T02:16:35.289Z,1018.95
2022-11-14T02:17:35.246Z,1018.91
2022-11-14T02:18:35.226Z,1018.93
2022-11-14T02:19:35.178Z,1018.88
2022-11-14T02:20:35.204Z,1018.86
2022-11-14T02:21:35.104Z,1018.84
2022-11-14T02:22:35.107Z,1018.84
2022-11-14T02:23:35.047Z,1018.80
2022-11-14T02:24:35.065Z,1018.83
2022-11-14T02:25:34.968Z,1018.77
2022-11-14T02:26:36.851Z,1018.74
2022-11-14T02:27:34.900Z,1018.77
2022-11-14T02:28:34.860Z,1018.72
2022-11-14T02:29:34.899Z,1018.71
2022-11-14T02:30:34.792Z,1018.64
2022-11-14T02:31:34.755Z,1018.61
2022-11-14T02:32:56.969Z,1018.64
2022-11-14T02:33:34.699Z,1018.59
2022-11-14T02:34:34.652Z,1018.64
2022-11-14T02:35:34.614Z,1018.60
2022-11-14T02:36:34.569Z,1018.65
2022-11-14T02:37:34.550Z,1018.65
2022-11-14T02:38:34.570Z,1018.61
2022-11-14T02:39:34.483Z,1018.59
2022-11-14T02:40:34.506Z,1018.54
2022-11-14T02:41:34.401Z,1018.58
2022-11-14T02:42:34.365Z,1018.57
2022-11-14T02:43:34.337Z,1018.49
2022-11-14T02:44:34.411Z,1018.51
2022-11-14T02:45:34.258Z,1018.52
2022-11-14T02:46:34.220Z,1018.54
2022-11-14T02:47:34.192Z,1018.58
2022-11-14T02:48:34.144Z,1018.48
2022-11-14T02:49:34.113Z,1018.45
2022-11-14T02:50:34.150Z,1018.47
2022-11-14T02:51:34.052Z,1018.50
2022-11-14T02:52:34.014Z,1018.50
2022-11-14T02:53:33.986Z,1018.47
2022-11-14T02:54:33.998Z,1018.56
2022-11-14T02:55:33.894Z,1018.51
2022-11-14T02:56:34.001Z,1018.49
2022-11-14T02:57:34.720Z,1018.48
2022-11-14T02:58:33.799Z,1018.47
2022-11-14T02:59:33.769Z,1018.47
2022-11-14T03:00:33.741Z,1018.40
2022-11-14T03:01:33.699Z,1018.48
2022-11-14T03:02:33.733Z,1018.48
2022-11-14T03:03:33.622Z,1018.44
2022-11-14T03:04:33.582Z,1018.46
2022-11-14T03:05:33.554Z,1018.48
2022-11-14T03:06:33.576Z,1018.47
2022-11-14T03:07:33.595Z,1018.46
2022-11-14T03:08:33.439Z,1018.45
2022-11-14T03:09:33.405Z,1018.43
2022-11-14T03:10:33.377Z,1018.37
2022-11-14T03:11:33.332Z,1018.41
2022-11-14T03:12:33.430Z,1018.35
2022-11-14T03:13:33.263Z,1018.36
2022-11-14T03:14:33.232Z,1018.38
2022-11-14T03:15:33.204Z,1018.43
2022-11-14T03:16:33.170Z,1018.39
2022-11-14T03:17:33.133Z,1018.34
2022-11-14T03:18:33.156Z,1018.37
2022-11-14T03:19:33.057Z,1018.34
2022-11-14T03:20:33.097Z,1018.29
2022-11-14T03:21:32.995Z,1018.30
2022-11-14T03:22:32.956Z,1018.21
2022-11-14T03:23:32.919Z,1018.33
2022-11-14T03:24:32.881Z,1018.27
2022-11-14T03:25:32.855Z,1018.21
2022-11-14T03:26:32.875Z,1018.22
2022-11-14T03:27:32.812Z,1018.22
2022-11-14T03:28:32.810Z,1018.19
2022-11-14T03:29:32.715Z,1018.16
2022-11-14T03:30:32.695Z,1018.19
2022-11-14T03:31:32.716Z,1018.10
2022-11-14T03:32:32.599Z,1018.07
2022-11-14T03:33:32.575Z,1018.16
2022-11-14T03:34:32.545Z,1018.19
2022-11-14T03:35:32.511Z,1018.19
2022-11-14T03:36:32.465Z,1018.19
2022-11-14T03:37:32.510Z,1018.15
2022-11-14T03:38:32.514Z,1018.14
2022-11-14T03:39:32.365Z,1018.14
2022-11-14T03:40:32.323Z,1018.16
2022-11-14T03:41:32.392Z,1018.13
2022-11-14T03:42:32.257Z,1018.17
2022-11-14T03:43:32.292Z,1018.10
2022-11-14T03:44:32.256Z,1018.09
2022-11-14T03:45:32.141Z,1018.09
2022-11-14T03:46:32.106Z,1018.08
2022-11-14T03:47:32.074Z,1018.07
2022-11-14T03:48:32.630Z,1018.01
2022-11-14T03:49:32.006Z,1018.05
2022-11-14T03:50:31.984Z,1018.02
2022-11-14T03:51:31.947Z,1018.02
2022-11-14T03:52:31.916Z,1017.97
2022-11-14T03:53:31.873Z,1017.97
2022-11-14T03:54:31.901Z,1017.96
2022-11-14T03:55:31.804Z,1017.92
2022-11-14T03:56:31.835Z,1017.95
2022-11-14T03:57:31.741Z,1017.95
2022-11-14T03:58:32.340Z,1017.92
2022-11-14T03:59:31.729Z,1017.95
2022-11-14T04:00:31.783Z,1017.90
2022-11-14T04:01:31.607Z,1017.87
2022-11-14T04:02:31.548Z,1017.87
2022-11-14T04:03:31.519Z,1017.89
2022-11-14T04:04:31.548Z,1017.89
2022-11-14T04:05:31.463Z,1017.85
2022-11-14T04:06:31.409Z,1017.86
2022-11-14T04:07:31.413Z,1017.88
2022-11-14T04:08:31.681Z,1017.81
2022-11-14T04:09:31.365Z,1017.83
2022-11-14T04:10:31.275Z,1017.86
2022-11-14T04:11:31.236Z,1017.89
2022-11-14T04:12:31.206Z,1017.80
2022-11-14T04:13:31.166Z,1017.86
2022-11-14T04:14:31.132Z,1017.87
2022-11-14T04:15:31.168Z,1017.89
2022-11-14T04:16:31.123Z,1017.83
2022-11-14T04:17:33.505Z,1017.87
2022-11-14T04:18:31.257Z,1017.84
2022-11-14T04:19:30.953Z,1017.84
2022-11-14T04:20:30.924Z,1017.81
2022-11-14T04:21:30.950Z,1017.81
2022-11-14T04:22:30.853Z,1017.78
2022-11-14T04:23:30.814Z,1017.83
2022-11-14T04:24:30.782Z,1017.82
2022-11-14T04:25:30.748Z,1017.80
2022-11-14T04:26:30.813Z,1017.81
2022-11-14T04:27:30.672Z,1017.84
2022-11-14T04:28:30.934Z,1017.79
2022-11-14T04:29:30.603Z,1017.81
2022-11-14T04:30:34.507Z,1017.76
2022-11-14T04:31:30.529Z,1017.78
2022-11-14T04:32:30.621Z,1017.80
2022-11-14T04:33:30.461Z,1017.77
2022-11-14T04:34:30.428Z,1017.73
2022-11-14T04:35:30.419Z,1017.79
2022-11-14T04:36:30.357Z,1017.78
2022-11-14T04:37:30.324Z,1017.77
2022-11-14T04:38:30.653Z,1017.77
2022-11-14T04:39:30.250Z,1017.72
2022-11-14T04:40:30.218Z,1017.79
2022-11-14T04:41:30.183Z,1017.72
2022-11-14T04:42:30.146Z,1017.69
2022-11-14T04:43:30.173Z,1017.68
2022-11-14T04:44:30.092Z,1017.71
2022-11-14T04:45:30.109Z,1017.59
2022-11-14T04:46:30.007Z,1017.69
2022-11-14T04:47:29.973Z,1017.67
2022-11-14T04:48:30.181Z,1017.68
2022-11-14T04:49:29.980Z,1017.67
2022-11-14T04:50:29.872Z,1017.72
2022-11-14T04:51:29.833Z,1017.71
2022-11-14T04:52:29.798Z,1017.68
2022-11-14T04:53:29.764Z,1017.67
2022-11-14T04:54:30.620Z,1017.68
2022-11-14T04:55:29.695Z,1017.67
2022-11-14T04:56:29.653Z,1017.64
2022-11-14T04:57:29.621Z,1017.67
2022-11-14T04:58:29.813Z,1017.66
2022-11-14T04:59:29.619Z,1017.63
2022-11-14T05:00:29.516Z,1017.63
2022-11-14T05:01:29.570Z,1017.64
2022-11-14T05:02:29.448Z,1017.65
2022-11-14T05:03:29.416Z,1017.59
2022-11-14T05:04:29.376Z,1017.57
2022-11-14T05:05:29.400Z,1017.57
2022-11-14T05:06:29.306Z,1017.54
2022-11-14T05:07:30.178Z,1017.54
2022-11-14T05:08:29.484Z,1017.49
2022-11-14T05:09:29.203Z,1017.54
2022-11-14T05:10:29.220Z,1017.53
2022-11-14T05:11:29.558Z,1017.53
2022-11-14T05:12:29.173Z,1017.55
2022-11-14T05:13:29.059Z,1017.55
2022-11-14T05:14:29.025Z,1017.54
2022-11-14T05:15:28.992Z,1017.53
2022-11-14T05:16:28.957Z,1017.54
2022-11-14T05:17:28.920Z,1017.53
2022-11-14T05:18:29.347Z,1017.52
2022-11-14T05:19:28.852Z,1017.51
2022-11-14T05:20:28.824Z,1017.48
2022-11-14T05:21:28.780Z,1017.49
2022-11-14T05:22:28.806Z,1017.51
2022-11-14T05:23:28.712Z,1017.44
2022-11-14T05:24:28.683Z,1017.46
2022-11-14T05:25:28.639Z,1017.43
2022-11-14T05:26:28.608Z,1017.42
2022-11-14T05:27:28.679Z,1017.38
2022-11-14T05:28:28.709Z,1017.34
2022-11-14T05:29:28.498Z,1017.31
2022-11-14T05:30:28.466Z,1017.33
2022-11-14T05:31:28.434Z,1017.28
2022-11-14T05:32:28.399Z,1017.30
2022-11-14T05:33:28.428Z,1017.28
2022-11-14T05:34:28.356Z,1017.30
2022-11-14T05:35:28.297Z,1017.30
2022-11-14T05:36:28.265Z,1017.24
2022-11-14T05:37:28.214Z,1017.24
2022-11-14T05:38:28.534Z,1017.24
2022-11-14T05:39:28.207Z,1017.20
2022-11-14T05:40:28.124Z,1017.19
2022-11-14T05:41:28.077Z,1017.17
2022-11-14T05:42:28.050Z,1017.15
2022-11-14T05:43:28.010Z,1017.18
2022-11-14T05:44:28.041Z,1017.12
2022-11-14T05:45:27.939Z,1017.16
2022-11-14T05:46:28.038Z,1017.18
2022-11-14T05:47:27.873Z,1017.09
2022-11-14T05:48:28.294Z,1017.15
2022-11-14T05:49:27.799Z,1017.10
2022-11-14T05:50:27.834Z,1017.09
2022-11-14T05:51:27.739Z,1017.09
2022-11-14T05:52:27.699Z,1017.10
2022-11-14T05:53:27.655Z,1017.13
2022-11-14T05:54:27.622Z,1017.08
2022-11-14T05:55:27.585Z,1017.12
2022-11-14T05:56:27.613Z,1017.11
2022-11-14T05:57:27.516Z,1017.12
2022-11-14T05:58:27.820Z,1017.09
2022-11-14T05:59:27.443Z,1017.10
2022-11-14T06:00:27.433Z,1017.08
2022-11-14T06:01:27.444Z,1017.01
2022-11-14T06:02:27.376Z,1017.02
2022-11-14T06:03:27.301Z,1017.01
2022-11-14T06:04:27.274Z,1017.03
2022-11-14T06:05:27.239Z,1017.07
2022-11-14T06:06:27.197Z,1017.05
2022-11-14T06:07:27.298Z,1017.06
2022-11-14T06:08:27.356Z,1017.08
2022-11-14T06:09:27.104Z,1017.15
2022-11-14T06:10:27.053Z,1017.14
2022-11-14T06:11:27.077Z,1017.12
2022-11-14T06:12:26.988Z,1017.13
2022-11-14T06:13:26.950Z,1017.08
2022-11-14T06:14:26.997Z,1017.07
2022-11-14T06:15:26.999Z,1017.03
2022-11-14T06:16:26.915Z,1017.05
2022-11-14T06:17:26.810Z,1017.08
2022-11-14T06:18:26.948Z,1017.03
2022-11-14T06:19:26.738Z,1017.05
2022-11-14T06:20:26.707Z,1017.06
2022-11-14T06:21:26.673Z,1017.07
2022-11-14T06:22:26.694Z,1017.04
2022-11-14T06:23:27.262Z,1017.02
2022-11-14T06:24:26.556Z,1017.03
2022-11-14T06:25:26.519Z,1017.02
2022-11-14T06:26:26.488Z,1016.99
2022-11-14T06:27:26.453Z,1017.04
2022-11-14T06:28:26.563Z,1017.05
2022-11-14T06:29:29.112Z,1017.08
2022-11-14T06:30:26.344Z,1017.02
2022-11-14T06:31:26.325Z,1017.05
2022-11-14T06:32:26.274Z,1017.05
2022-11-14T06:33:26.243Z,1017.04
2022-11-14T06:34:26.259Z,1017.08
2022-11-14T06:35:26.188Z,1017.08
2022-11-14T06:36:26.131Z,1017.08
2022-11-14T06:37:28.436Z,1017.03
2022-11-14T06:38:26.116Z,1017.05
2022-11-14T06:39:26.050Z,1017.13
2022-11-14T06:40:26.038Z,1017.05
2022-11-14T06:41:25.952Z,1017.16
2022-11-14T06:42:25.917Z,1017.11
2022-11-14T06:43:25.878Z,1017.11
2022-11-14T06:44:30.697Z,1017.11
2022-11-14T06:45:25.813Z,1017.11
2022-11-14T06:46:25.773Z,1017.09
2022-11-14T06:47:25.738Z,1017.08
2022-11-14T06:48:25.700Z,1017.10
2022-11-14T06:49:25.670Z,1017.13
2022-11-14T06:50:25.698Z,1017.14
2022-11-14T06:51:25.598Z,1017.14
2022-11-14T06:52:25.561Z,1017.16
2022-11-14T06:53:25.527Z,1017.19
2022-11-14T06:54:25.489Z,1017.11
2022-11-14T06:55:25.850Z,1017.14
2022-11-14T06:56:25.422Z,1017.17
2022-11-14T06:57:25.388Z,1017.19
2022-11-14T06:58:25.351Z,1017.13
2022-11-14T06:59:25.309Z,1017.14
2022-11-14T07:00:25.358Z,1017.15
2022-11-14T07:01:25.252Z,1017.17
2022-11-14T07:02:25.201Z,1017.13
2022-11-14T07:03:25.299Z,1017.16
2022-11-14T07:04:25.132Z,1017.18
2022-11-14T07:05:25.108Z,1017.13
2022-11-14T07:06:25.121Z,1017.18
2022-11-14T07:07:25.128Z,1017.18
2022-11-14T07:08:25.002Z,1017.19
2022-11-14T07:09:24.949Z,1017.17
2022-11-14T07:10:24.912Z,1017.14
2022-11-14T07:11:24.910Z,1017.13
2022-11-14T07:12:24.919Z,1017.09
2022-11-14T07:13:24.809Z,1017.03
2022-11-14T07:14:24.773Z,1017.05
2022-11-14T07:15:24.744Z,1017.06
2022-11-14T07:16:24.700Z,1017.08
2022-11-14T07:17:29.863Z,1017.06
2022-11-14T07:18:24.710Z,1017.12
2022-11-14T07:19:24.598Z,1017.11
2022-11-14T07:20:24.561Z,1017.08
2022-11-14T07:21:24.530Z,1017.07
2022-11-14T07:22:25.145Z,1017.11
2022-11-14T07:23:24.460Z,1017.04
2022-11-14T07:24:24.481Z,1017.05
2022-11-14T07:25:24.382Z,1017.01
2022-11-14T07:26:24.345Z,1016.96
2022-11-14T07:27:24.315Z,1016.98
2022-11-14T07:28:24.282Z,1016.97
2022-11-14T07:29:24.241Z,1016.93
2022-11-14T07:30:24.282Z,1016.99
2022-11-14T07:31:24.167Z,1016.97
2022-11-14T07:32:24.144Z,1016.97
2022-11-14T07:33:24.101Z,1017.00
2022-11-14T07:34:24.064Z,1016.97
2022-11-14T07:35:24.025Z,1016.97
2022-11-14T07:36:24.048Z,1016.95
2022-11-14T07:37:23.951Z,1016.92
2022-11-14T07:38:23.919Z,1016.84
2022-11-14T07:39:23.939Z,1016.90
2022-11-14T07:40:23.845Z,1016.92
2022-11-14T07:41:23.841Z,1016.87
2022-11-14T07:42:23.786Z,1016.92
2022-11-14T07:43:23.742Z,1016.94
2022-11-14T07:44:23.783Z,1016.92
2022-11-14T07:45:23.670Z,1016.94
2022-11-14T07:46:23.630Z,1016.86
2022-11-14T07:47:23.598Z,1016.85
2022-11-14T07:48:23.571Z,1016.81
2022-11-14T07:49:23.532Z,1016.83
2022-11-14T07:50:23.584Z,1016.80
2022-11-14T07:51:23.460Z,1016.87
2022-11-14T07:52:23.419Z,1016.82
2022-11-14T07:53:23.393Z,1016.85
2022-11-14T07:54:23.351Z,1016.88
2022-11-14T07:55:23.387Z,1016.77
2022-11-14T07:56:23.284Z,1016.80
2022-11-14T07:57:23.242Z,1016.83
2022-11-14T07:58:23.208Z,1016.80
2022-11-14T07:59:23.169Z,1016.79
2022-11-14T08:00:23.138Z,1016.79
2022-11-14T08:01:23.200Z,1016.83
2022-11-14T08:02:23.063Z,1016.78
2022-11-14T08:03:23.034Z,1016.79
2022-11-14T08:04:22.996Z,1016.78
2022-11-14T08:05:23.009Z,1016.81
2022-11-14T08:06:22.992Z,1016.81
2022-11-14T08:07:22.952Z,1016.73
2022-11-14T08:08:22.849Z,1016.74
2022-11-14T08:09:22.826Z,1016.73
2022-11-14T08:10:22.781Z,1016.81
2022-11-14T08:11:34.521Z,1016.81
2022-11-14T08:12:22.708Z,1016.77
2022-11-14T08:13:32.244Z,1016.77
2022-11-14T08:14:22.637Z,1016.77
2022-11-14T08:15:22.603Z,1016.78
2022-11-14T08:16:22.566Z,1016.78
2022-11-14T08:17:22.581Z,1016.73
2022-11-14T08:18:22.553Z,1016.76
2022-11-14T08:19:22.477Z,1016.78
2022-11-14T08:20:22.426Z,1016.76
2022-11-14T08:21:22.391Z,1016.74
2022-11-14T08:22:22.354Z,1016.73
2022-11-14T08:23:22.404Z,1016.70
2022-11-14T08:24:22.295Z,1016.72
2022-11-14T08:25:22.251Z,1016.73
2022-11-14T08:26:22.209Z,1016.70
2022-11-14T08:27:22.178Z,1016.77
2022-11-14T08:28:22.170Z,1016.74
2022-11-14T08:29:22.329Z,1016.69
2022-11-14T08:30:22.073Z,1016.71
2022-11-14T08:31:22.037Z,1016.73
2022-11-14T08:32:22.001Z,1016.73
2022-11-14T08:33:21.968Z,1016.66
2022-11-14T08:34:21.984Z,1016.65
2022-11-14T08:35:21.898Z,1016.61
2022-11-14T08:36:21.862Z,1016.63
2022-11-14T08:37:21.825Z,1016.60
2022-11-14T08:38:22.667Z,1016.63
2022-11-14T08:39:22.234Z,1016.57
2022-11-14T08:40:21.727Z,1016.61
2022-11-14T08:41:21.682Z,1016.60
2022-11-14T08:42:21.645Z,1016.62
2022-11-14T08:43:21.614Z,1016.59
2022-11-14T08:44:21.574Z,1016.62
2022-11-14T08:45:22.159Z,1016.54
2022-11-14T08:46:22.160Z,1016.55
2022-11-14T08:47:21.472Z,1016.55
2022-11-14T08:48:21.447Z,1016.55
2022-11-14T08:49:21.404Z,1016.53
2022-11-14T08:50:21.362Z,1016.53
2022-11-14T08:51:21.410Z,1016.55
2022-11-14T08:52:21.300Z,1016.52
2022-11-14T08:53:21.273Z,1016.54
2022-11-14T08:54:21.242Z,1016.55
2022-11-14T08:55:21.194Z,1016.51
2022-11-14T08:56:21.158Z,1016.49
2022-11-14T08:57:21.256Z,1016.53
2022-11-14T08:58:21.115Z,1016.55
2022-11-14T08:59:21.055Z,1016.57
2022-11-14T09:00:21.027Z,1016.58
2022-11-14T09:01:20.976Z,1016.58
2022-11-14T09:02:21.049Z,1016.54
2022-11-14T09:03:21.039Z,1016.61
2022-11-14T09:04:21.037Z,1016.59
2022-11-14T09:05:20.845Z,1016.56
2022-11-14T09:06:20.810Z,1016.54
2022-11-14T09:07:20.801Z,1016.56
2022-11-14T09:08:20.734Z,1016.55
2022-11-14T09:09:20.701Z,1016.52
2022-11-14T09:10:20.722Z,1016.52
2022-11-14T09:11:20.690Z,1016.50
2022-11-14T09:12:20.604Z,1016.47
2022-11-14T09:13:20.562Z,1016.50
2022-11-14T09:14:20.540Z,1016.53
2022-11-14T09:15:20.496Z,1016.48
2022-11-14T09:16:20.509Z,1016.49
2022-11-14T09:17:20.426Z,1016.48
2022-11-14T09:18:20.394Z,1016.46
2022-11-14T09:19:20.356Z,1016.50
2022-11-14T09:20:20.322Z,1016.45
2022-11-14T09:21:20.351Z,1016.49
2022-11-14T09:22:20.252Z,1016.53
2022-11-14T09:23:20.232Z,1016.45
2022-11-14T09:24:20.179Z,1016.47
2022-11-14T09:25:20.148Z,1016.42
2022-11-14T09:26:20.107Z,1016.48
2022-11-14T09:27:20.147Z,1016.54
2022-11-14T09:28:20.041Z,1016.48
2022-11-14T09:29:20.005Z,1016.53
2022-11-14T09:30:19.975Z,1016.51
2022-11-14T09:31:19.939Z,1016.51
2022-11-14T09:32:19.906Z,1016.58
2022-11-14T09:33:19.926Z,1016.57
2022-11-14T09:34:19.893Z,1016.58
2022-11-14T09:35:19.801Z,1016.62
2022-11-14T09:36:19.826Z,1016.59
2022-11-14T09:37:19.726Z,1016.58
2022-11-14T09:38:19.692Z,1016.58
2022-11-14T09:39:19.658Z,1016.56
2022-11-14T09:40:19.675Z,1016.61
2022-11-14T09:41:19.593Z,1016.64
2022-11-14T09:42:19.555Z,1016.64
2022-11-14T09:43:19.591Z,1016.57
2022-11-14T09:44:20.930Z,1016.62
2022-11-14T09:45:19.455Z,1016.52
2022-11-14T09:46:19.412Z,1016.53
2022-11-14T09:47:21.040Z,1016.53
2022-11-14T09:48:20.175Z,1016.51
2022-11-14T09:49:19.377Z,1016.49
2022-11-14T09:50:24.482Z,1016.46
2022-11-14T09:51:19.244Z,1016.45
2022-11-14T09:52:19.207Z,1016.42
2022-11-14T09:53:19.172Z,1016.41
2022-11-14T09:54:19.145Z,1016.39
2022-11-14T09:55:19.161Z,1016.41
2022-11-14T09:56:19.071Z,1016.37
2022-11-14T09:57:19.035Z,1016.39
2022-11-14T09:58:18.997Z,1016.42
2022-11-14T09:59:18.966Z,1016.38
2022-11-14T10:00:18.978Z,1016.38
2022-11-14T10:01:18.898Z,1016.34
2022-11-14T10:02:18.996Z,1016.38
2022-11-14T10:03:18.825Z,1016.31
2022-11-14T10:04:18.792Z,1016.35
2022-11-14T10:05:18.763Z,1016.39
2022-11-14T10:06:18.727Z,1016.34
2022-11-14T10:07:18.790Z,1016.36
2022-11-14T10:08:18.658Z,1016.37
2022-11-14T10:09:19.286Z,1016.29
2022-11-14T10:10:18.592Z,1016.35
2022-11-14T10:11:18.555Z,1016.34
2022-11-14T10:12:18.571Z,1016.32
2022-11-14T10:13:18.530Z,1016.31
2022-11-14T10:14:18.446Z,1016.27
2022-11-14T10:15:18.409Z,1016.29
2022-11-14T10:16:18.382Z,1016.23
2022-11-14T10:17:18.347Z,1016.21
2022-11-14T10:18:18.384Z,1016.16
2022-11-14T10:19:18.282Z,1016.17
2022-11-14T10:20:18.243Z,1016.15
2022-11-14T10:21:18.207Z,1016.10
2022-11-14T10:22:18.178Z,1016.06
2022-11-14T10:23:18.136Z,1016.05
2022-11-14T10:24:18.189Z,1016.03
2022-11-14T10:25:18.117Z,1016.11
2022-11-14T10:26:18.038Z,1016.06
2022-11-14T10:27:18.004Z,1016.10
2022-11-14T10:28:17.974Z,1016.10
2022-11-14T10:29:17.943Z,1016.05
2022-11-14T10:30:17.951Z,1016.04
2022-11-14T10:31:17.928Z,1016.01
2022-11-14T10:32:17.834Z,1015.95
2022-11-14T10:33:17.819Z,1015.96
2022-11-14T10:34:17.771Z,1016.01
2022-11-14T10:35:17.727Z,1015.97
2022-11-14T10:36:17.859Z,1015.97
2022-11-14T10:37:17.716Z,1015.96
2022-11-14T10:38:17.643Z,1015.96
2022-11-14T10:39:17.635Z,1015.97
2022-11-14T10:40:17.620Z,1016.00
2022-11-14T10:41:41.911Z,1016.02
2022-11-14T10:42:17.500Z,1015.99
2022-11-14T10:43:17.595Z,1015.95
2022-11-14T10:44:17.433Z,1015.97
2022-11-14T10:45:17.395Z,1016.02
2022-11-14T10:46:17.375Z,1016.01
2022-11-14T10:47:17.368Z,1015.92
2022-11-14T10:48:17.287Z,1015.94
2022-11-14T10:49:17.251Z,1015.92
2022-11-14T10:50:17.241Z,1015.89
2022-11-14T10:51:17.277Z,1015.90
2022-11-14T10:52:17.175Z,1015.86
2022-11-14T10:53:17.686Z,1015.84
2022-11-14T10:54:17.099Z,1015.78
2022-11-14T10:55:17.049Z,1015.81
2022-11-14T10:56:17.033Z,1015.75
2022-11-14T10:57:17.060Z,1015.78
2022-11-14T10:58:16.942Z,1015.72
2022-11-14T10:59:16.903Z,1015.67
2022-11-14T11:00:16.946Z,1015.68
2022-11-14T11:01:22.735Z,1015.74
2022-11-14T11:02:16.817Z,1015.69
2022-11-14T11:03:16.835Z,1015.64
2022-11-14T11:04:16.856Z,1015.63
2022-11-14T11:05:16.712Z,1015.61
2022-11-14T11:06:16.678Z,1015.60
2022-11-14T11:07:16.750Z,1015.59
2022-11-14T11:08:42.570Z,1015.55
2022-11-14T11:09:16.698Z,1015.52
2022-11-14T11:10:16.546Z,1015.54
2022-11-14T11:11:16.500Z,1015.43
2022-11-14T11:12:16.520Z,1015.58
2022-11-14T11:13:16.440Z,1015.53
2022-11-14T11:14:16.424Z,1015.62
2022-11-14T11:15:16.447Z,1015.65
2022-11-14T11:16:16.340Z,1015.73
2022-11-14T11:17:16.309Z,1015.76
2022-11-14T11:18:16.274Z,1015.74
2022-11-14T11:19:16.242Z,1015.66
2022-11-14T11:20:16.204Z,1015.59
2022-11-14T11:21:16.260Z,1015.66
2022-11-14T11:22:16.151Z,1015.65
2022-11-14T11:23:16.177Z,1015.63
2022-11-14T11:24:16.061Z,1015.58
2022-11-14T11:25:16.035Z,1015.60
2022-11-14T11:26:15.999Z,1015.60
2022-11-14T11:27:15.970Z,1015.59
2022-11-14T11:28:15.986Z,1015.58
2022-11-14T11:29:15.899Z,1015.60
2022-11-14T11:30:15.919Z,1015.58
2022-11-14T11:31:15.836Z,1015.65
2022-11-14T11:32:16.323Z,1015.57
2022-11-14T11:33:15.852Z,1015.58
2022-11-14T11:34:15.758Z,1015.56
2022-11-14T11:35:15.695Z,1015.50
2022-11-14T11:36:15.655Z,1015.47
2022-11-14T11:37:15.666Z,1015.51
2022-11-14T11:38:16.137Z,1015.47
2022-11-14T11:39:15.614Z,1015.45
2022-11-14T11:40:15.545Z,1015.49
2022-11-14T11:41:25.789Z,1015.42
2022-11-14T11:42:15.456Z,1015.33
2022-11-14T11:44:15.444Z,1015.34
2022-11-14T11:45:15.357Z,1015.30
2022-11-14T11:46:15.321Z,1015.32
2022-11-14T11:47:16.197Z,1015.27
2022-11-14T11:48:22.197Z,1015.27
2022-11-14T11:49:15.272Z,1015.26
2022-11-14T11:50:15.268Z,1015.24
2022-11-14T11:51:15.164Z,1015.27
2022-11-14T11:52:15.160Z,1015.25
2022-11-14T11:53:15.113Z,1015.25
2022-11-14T11:54:15.067Z,1015.30
2022-11-14T11:55:15.027Z,1015.28
2022-11-14T11:56:15.065Z,1015.27
2022-11-14T11:57:20.154Z,1015.31
2022-11-14T11:58:14.967Z,1015.32
2022-11-14T11:59:14.882Z,1015.32
2022-11-14T12:00:15.484Z,1015.30
2022-11-14T12:01:14.811Z,1015.25
2022-11-14T12:02:14.859Z,1015.31
2022-11-14T12:03:20.372Z,1015.25
2022-11-14T12:04:14.856Z,1015.29
2022-11-14T12:05:14.697Z,1015.26
2022-11-14T12:06:14.643Z,1015.32